sensor_id;sensor_type;location;lat;lon;timestamp;P1;durP1;ratioP1;P2;durP2;ratioP2
9254;SDS011;4663;49.120;9.730;2023-03-01T00:01:50;25.03;;;22.93;;
9254;SDS011;4663;49.120;9.730;2023-03-01T00:04:15;26.27;;;24.03;;
9254;SDS011;4663;49.120;9.730;2023-03-01T00:06:44;25.40;;;23.07;;
9254;SDS011;4663;49.120;9.730;2023-03-01T00:09:11;25.77;;;23.57;;
9254;SDS011;4663;49.120;9.730;2023-03-01T00:11:37;25.90;;;23.70;;
9254;SDS011;4663;49.120;9.730;2023-03-01T00:14:03;25.83;;;23.63;;
9254;SDS011;4663;49.120;9.730;2023-03-01T00:16:36;27.07;;;24.57;;
9254;SDS011;4663;49.120;9.730;2023-03-01T00:19:06;27.83;;;25.40;;
9254;SDS011;4663;49.120;9.730;2023-03-01T00:21:35;29.33;;;26.57;;
9254;SDS011;4663;49.120;9.730;2023-03-01T00:24:01;26.97;;;24.77;;
9254;SDS011;4663;49.120;9.730;2023-03-01T00:26:26;27.40;;;24.97;;
9254;SDS011;4663;49.120;9.730;2023-03-01T00:28:53;27.70;;;25.30;;
9254;SDS011;4663;49.120;9.730;2023-03-01T00:31:23;28.23;;;25.83;;
9254;SDS011;4663;49.120;9.730;2023-03-01T00:33:54;31.33;;;28.63;;
9254;SDS011;4663;49.120;9.730;2023-03-01T00:36:22;31.53;;;28.63;;
9254;SDS011;4663;49.120;9.730;2023-03-01T00:38:48;31.07;;;28.40;;
9254;SDS011;4663;49.120;9.730;2023-03-01T00:41:15;31.93;;;29.43;;
9254;SDS011;4663;49.120;9.730;2023-03-01T00:43:42;33.03;;;30.17;;
9254;SDS011;4663;49.120;9.730;2023-03-01T00:46:09;30.50;;;27.90;;
9254;SDS011;4663;49.120;9.730;2023-03-01T00:48:38;31.50;;;28.80;;
9254;SDS011;4663;49.120;9.730;2023-03-01T00:51:08;31.17;;;28.67;;
9254;SDS011;4663;49.120;9.730;2023-03-01T00:53:36;31.50;;;28.80;;
9254;SDS011;4663;49.120;9.730;2023-03-01T00:56:02;30.93;;;28.43;;
9254;SDS011;4663;49.120;9.730;2023-03-01T00:58:29;32.07;;;29.20;;
9254;SDS011;4663;49.120;9.730;2023-03-01T01:00:55;31.10;;;28.50;;
9254;SDS011;4663;49.120;9.730;2023-03-01T01:03:21;30.40;;;27.93;;
9254;SDS011;4663;49.120;9.730;2023-03-01T01:05:46;31.10;;;28.63;;
9254;SDS011;4663;49.120;9.730;2023-03-01T01:08:12;32.00;;;29.37;;
9254;SDS011;4663;49.120;9.730;2023-03-01T01:10:38;32.13;;;29.53;;
9254;SDS011;4663;49.120;9.730;2023-03-01T01:13:03;31.30;;;28.77;;
9254;SDS011;4663;49.120;9.730;2023-03-01T01:15:29;32.97;;;30.40;;
9254;SDS011;4663;49.120;9.730;2023-03-01T01:17:58;32.37;;;29.60;;
9254;SDS011;4663;49.120;9.730;2023-03-01T01:20:26;33.43;;;30.47;;
9254;SDS011;4663;49.120;9.730;2023-03-01T01:22:51;34.70;;;32.07;;
9254;SDS011;4663;49.120;9.730;2023-03-01T01:25:17;33.63;;;30.87;;
9254;SDS011;4663;49.120;9.730;2023-03-01T01:27:43;35.60;;;32.80;;
9254;SDS011;4663;49.120;9.730;2023-03-01T01:30:08;37.03;;;34.23;;
9254;SDS011;4663;49.120;9.730;2023-03-01T01:32:34;33.33;;;30.80;;
9254;SDS011;4663;49.120;9.730;2023-03-01T01:35:00;32.77;;;30.07;;
9254;SDS011;4663;49.120;9.730;2023-03-01T01:37:25;32.57;;;29.97;;
9254;SDS011;4663;49.120;9.730;2023-03-01T01:39:57;34.63;;;31.87;;
9254;SDS011;4663;49.120;9.730;2023-03-01T01:42:24;33.13;;;30.23;;
9254;SDS011;4663;49.120;9.730;2023-03-01T01:45:15;33.63;;;30.83;;
9254;SDS011;4663;49.120;9.730;2023-03-01T01:48:05;31.20;;;28.33;;
9254;SDS011;4663;49.120;9.730;2023-03-01T01:50:38;34.47;;;31.57;;
9254;SDS011;4663;49.120;9.730;2023-03-01T01:53:09;33.33;;;30.63;;
9254;SDS011;4663;49.120;9.730;2023-03-01T01:55:39;31.30;;;28.70;;
9254;SDS011;4663;49.120;9.730;2023-03-01T01:58:07;32.30;;;29.70;;
9254;SDS011;4663;49.120;9.730;2023-03-01T02:00:35;33.67;;;30.97;;
9254;SDS011;4663;49.120;9.730;2023-03-01T02:03:04;32.50;;;29.97;;
9254;SDS011;4663;49.120;9.730;2023-03-01T02:05:37;30.47;;;28.20;;
9254;SDS011;4663;49.120;9.730;2023-03-01T02:08:09;33.27;;;30.53;;
9254;SDS011;4663;49.120;9.730;2023-03-01T02:10:38;33.10;;;30.30;;
9254;SDS011;4663;49.120;9.730;2023-03-01T02:13:04;32.60;;;30.00;;
9254;SDS011;4663;49.120;9.730;2023-03-01T02:15:36;33.83;;;31.20;;
9254;SDS011;4663;49.120;9.730;2023-03-01T02:18:03;31.17;;;28.87;;
9254;SDS011;4663;49.120;9.730;2023-03-01T02:23:13;32.77;;;30.20;;
9254;SDS011;4663;49.120;9.730;2023-03-01T02:28:29;31.07;;;28.37;;
9254;SDS011;4663;49.120;9.730;2023-03-01T02:30:56;31.83;;;29.33;;
9254;SDS011;4663;49.120;9.730;2023-03-01T02:33:41;32.53;;;29.83;;
9254;SDS011;4663;49.120;9.730;2023-03-01T02:36:09;32.87;;;30.13;;
9254;SDS011;4663;49.120;9.730;2023-03-01T02:38:39;33.17;;;30.47;;
9254;SDS011;4663;49.120;9.730;2023-03-01T02:41:06;33.80;;;30.80;;
9254;SDS011;4663;49.120;9.730;2023-03-01T02:43:33;31.07;;;28.57;;
9254;SDS011;4663;49.120;9.730;2023-03-01T02:46:03;33.60;;;30.60;;
9254;SDS011;4663;49.120;9.730;2023-03-01T02:48:46;32.93;;;30.33;;
9254;SDS011;4663;49.120;9.730;2023-03-01T02:56:50;33.20;;;30.30;;
9254;SDS011;4663;49.120;9.730;2023-03-01T02:59:18;33.17;;;30.47;;
9254;SDS011;4663;49.120;9.730;2023-03-01T03:01:46;32.07;;;29.57;;
9254;SDS011;4663;49.120;9.730;2023-03-01T03:04:16;31.33;;;28.77;;
9254;SDS011;4663;49.120;9.730;2023-03-01T03:06:46;32.10;;;29.40;;
9254;SDS011;4663;49.120;9.730;2023-03-01T03:09:13;33.60;;;31.03;;
9254;SDS011;4663;49.120;9.730;2023-03-01T03:11:39;33.07;;;30.27;;
9254;SDS011;4663;49.120;9.730;2023-03-01T03:14:07;32.07;;;29.57;;
9254;SDS011;4663;49.120;9.730;2023-03-01T03:16:38;33.20;;;30.60;;
9254;SDS011;4663;49.120;9.730;2023-03-01T03:19:05;34.63;;;31.63;;
9254;SDS011;4663;49.120;9.730;2023-03-01T03:21:31;32.63;;;29.83;;
9254;SDS011;4663;49.120;9.730;2023-03-01T03:23:57;34.23;;;31.23;;
9254;SDS011;4663;49.120;9.730;2023-03-01T03:26:23;34.40;;;31.63;;
9254;SDS011;4663;49.120;9.730;2023-03-01T03:28:48;34.00;;;31.10;;
9254;SDS011;4663;49.120;9.730;2023-03-01T03:31:14;31.30;;;28.70;;
9254;SDS011;4663;49.120;9.730;2023-03-01T03:33:39;34.27;;;31.40;;
9254;SDS011;4663;49.120;9.730;2023-03-01T03:36:04;33.57;;;30.57;;
9254;SDS011;4663;49.120;9.730;2023-03-01T03:38:30;32.37;;;29.70;;
9254;SDS011;4663;49.120;9.730;2023-03-01T03:41:00;32.80;;;30.00;;
9254;SDS011;4663;49.120;9.730;2023-03-01T03:43:31;33.03;;;30.00;;
9254;SDS011;4663;49.120;9.730;2023-03-01T03:45:58;32.77;;;30.07;;
9254;SDS011;4663;49.120;9.730;2023-03-01T03:48:23;35.57;;;32.57;;
9254;SDS011;4663;49.120;9.730;2023-03-01T03:50:51;31.77;;;29.17;;
9254;SDS011;4663;49.120;9.730;2023-03-01T03:53:18;33.53;;;30.70;;
9254;SDS011;4663;49.120;9.730;2023-03-01T03:55:44;34.57;;;31.63;;
9254;SDS011;4663;49.120;9.730;2023-03-01T03:58:14;32.10;;;29.03;;
9254;SDS011;4663;49.120;9.730;2023-03-01T04:00:41;32.20;;;29.27;;
9254;SDS011;4663;49.120;9.730;2023-03-01T04:03:09;30.53;;;27.77;;
9254;SDS011;4663;49.120;9.730;2023-03-01T04:05:36;30.47;;;27.80;;
9254;SDS011;4663;49.120;9.730;2023-03-01T04:08:02;29.50;;;26.70;;
9254;SDS011;4663;49.120;9.730;2023-03-01T04:10:33;30.50;;;27.70;;
9254;SDS011;4663;49.120;9.730;2023-03-01T04:12:59;28.93;;;26.30;;
9254;SDS011;4663;49.120;9.730;2023-03-01T04:15:25;29.97;;;27.20;;
9254;SDS011;4663;49.120;9.730;2023-03-01T04:17:51;27.87;;;25.47;;
9254;SDS011;4663;49.120;9.730;2023-03-01T04:20:19;27.73;;;25.27;;
9254;SDS011;4663;49.120;9.730;2023-03-01T04:22:50;28.83;;;26.27;;
9254;SDS011;4663;49.120;9.730;2023-03-01T04:25:16;35.80;;;32.90;;
9254;SDS011;4663;49.120;9.730;2023-03-01T04:27:42;27.73;;;25.03;;
9254;SDS011;4663;49.120;9.730;2023-03-01T04:30:07;27.93;;;25.40;;
9254;SDS011;4663;49.120;9.730;2023-03-01T04:32:34;27.83;;;25.30;;
9254;SDS011;4663;49.120;9.730;2023-03-01T04:34:59;29.93;;;27.20;;
9254;SDS011;4663;49.120;9.730;2023-03-01T04:37:25;27.57;;;25.03;;
9254;SDS011;4663;49.120;9.730;2023-03-01T04:39:51;26.53;;;24.03;;
9254;SDS011;4663;49.120;9.730;2023-03-01T04:42:17;28.17;;;25.57;;
9254;SDS011;4663;49.120;9.730;2023-03-01T04:44:43;26.17;;;23.57;;
9254;SDS011;4663;49.120;9.730;2023-03-01T04:47:09;27.00;;;24.17;;
9254;SDS011;4663;49.120;9.730;2023-03-01T04:49:35;27.27;;;24.70;;
9254;SDS011;4663;49.120;9.730;2023-03-01T04:52:00;25.83;;;23.43;;
9254;SDS011;4663;49.120;9.730;2023-03-01T04:54:32;27.03;;;24.53;;
9254;SDS011;4663;49.120;9.730;2023-03-01T04:56:58;25.37;;;22.87;;
9254;SDS011;4663;49.120;9.730;2023-03-01T04:59:25;26.40;;;23.93;;
9254;SDS011;4663;49.120;9.730;2023-03-01T05:01:51;26.87;;;24.43;;
9254;SDS011;4663;49.120;9.730;2023-03-01T05:04:16;26.57;;;24.07;;
9254;SDS011;4663;49.120;9.730;2023-03-01T05:06:42;26.73;;;24.23;;
9254;SDS011;4663;49.120;9.730;2023-03-01T05:09:08;25.33;;;22.87;;
9254;SDS011;4663;49.120;9.730;2023-03-01T05:11:33;23.17;;;20.97;;
9254;SDS011;4663;49.120;9.730;2023-03-01T05:14:07;27.27;;;24.53;;
9254;SDS011;4663;49.120;9.730;2023-03-01T05:16:34;25.53;;;23.17;;
9254;SDS011;4663;49.120;9.730;2023-03-01T05:19:01;28.53;;;25.73;;
9254;SDS011;4663;49.120;9.730;2023-03-01T05:21:36;25.27;;;22.63;;
9254;SDS011;4663;49.120;9.730;2023-03-01T05:24:22;25.20;;;22.57;;
9254;SDS011;4663;49.120;9.730;2023-03-01T05:26:47;26.70;;;24.17;;
9254;SDS011;4663;49.120;9.730;2023-03-01T05:29:13;26.00;;;23.33;;
9254;SDS011;4663;49.120;9.730;2023-03-01T05:31:38;23.83;;;21.60;;
9254;SDS011;4663;49.120;9.730;2023-03-01T05:34:03;26.17;;;23.47;;
9254;SDS011;4663;49.120;9.730;2023-03-01T05:36:29;25.30;;;22.80;;
9254;SDS011;4663;49.120;9.730;2023-03-01T05:38:55;24.97;;;22.50;;
9254;SDS011;4663;49.120;9.730;2023-03-01T05:41:20;24.23;;;21.83;;
9254;SDS011;4663;49.120;9.730;2023-03-01T05:43:46;26.83;;;24.13;;
9254;SDS011;4663;49.120;9.730;2023-03-01T05:46:11;22.83;;;20.43;;
9254;SDS011;4663;49.120;9.730;2023-03-01T05:48:38;25.87;;;23.20;;
9254;SDS011;4663;49.120;9.730;2023-03-01T05:51:03;24.97;;;22.40;;
9254;SDS011;4663;49.120;9.730;2023-03-01T05:53:29;24.83;;;21.27;;
9254;SDS011;4663;49.120;9.730;2023-03-01T05:55:54;24.23;;;21.87;;
9254;SDS011;4663;49.120;9.730;2023-03-01T05:58:20;25.20;;;22.47;;
9254;SDS011;4663;49.120;9.730;2023-03-01T06:00:46;25.43;;;22.80;;
9254;SDS011;4663;49.120;9.730;2023-03-01T06:03:14;23.70;;;21.23;;
9254;SDS011;4663;49.120;9.730;2023-03-01T06:05:40;25.40;;;22.77;;
9254;SDS011;4663;49.120;9.730;2023-03-01T06:08:07;23.47;;;21.07;;
9254;SDS011;4663;49.120;9.730;2023-03-01T06:10:32;24.70;;;22.10;;
9254;SDS011;4663;49.120;9.730;2023-03-01T06:12:57;23.93;;;21.47;;
9254;SDS011;4663;49.120;9.730;2023-03-01T06:15:23;24.70;;;22.17;;
9254;SDS011;4663;49.120;9.730;2023-03-01T06:17:50;24.50;;;22.13;;
9254;SDS011;4663;49.120;9.730;2023-03-01T06:20:19;25.97;;;23.30;;
9254;SDS011;4663;49.120;9.730;2023-03-01T06:22:47;25.77;;;23.07;;
9254;SDS011;4663;49.120;9.730;2023-03-01T06:25:15;26.23;;;23.73;;
9254;SDS011;4663;49.120;9.730;2023-03-01T06:27:42;26.20;;;23.70;;
9254;SDS011;4663;49.120;9.730;2023-03-01T06:30:08;27.83;;;25.13;;
9254;SDS011;4663;49.120;9.730;2023-03-01T06:32:35;26.43;;;23.83;;
9254;SDS011;4663;49.120;9.730;2023-03-01T06:35:02;28.57;;;25.77;;
9254;SDS011;4663;49.120;9.730;2023-03-01T06:37:28;29.23;;;26.23;;
9254;SDS011;4663;49.120;9.730;2023-03-01T06:39:53;28.87;;;26.40;;
9254;SDS011;4663;49.120;9.730;2023-03-01T06:42:18;32.53;;;29.60;;
9254;SDS011;4663;49.120;9.730;2023-03-01T06:44:44;34.23;;;31.03;;
9254;SDS011;4663;49.120;9.730;2023-03-01T06:47:09;32.30;;;29.40;;
9254;SDS011;4663;49.120;9.730;2023-03-01T06:49:34;35.20;;;31.93;;
9254;SDS011;4663;49.120;9.730;2023-03-01T06:52:00;32.80;;;30.00;;
9254;SDS011;4663;49.120;9.730;2023-03-01T06:54:25;35.40;;;32.07;;
9254;SDS011;4663;49.120;9.730;2023-03-01T06:56:51;32.73;;;29.80;;
9254;SDS011;4663;49.120;9.730;2023-03-01T06:59:17;34.13;;;31.20;;
9254;SDS011;4663;49.120;9.730;2023-03-01T07:01:43;37.27;;;34.00;;
9254;SDS011;4663;49.120;9.730;2023-03-01T07:04:09;37.83;;;34.67;;
9254;SDS011;4663;49.120;9.730;2023-03-01T07:06:34;36.10;;;33.00;;
9254;SDS011;4663;49.120;9.730;2023-03-01T07:09:00;33.73;;;30.53;;
9254;SDS011;4663;49.120;9.730;2023-03-01T07:11:25;33.60;;;30.60;;
9254;SDS011;4663;49.120;9.730;2023-03-01T07:13:50;33.80;;;30.77;;
9254;SDS011;4663;49.120;9.730;2023-03-01T07:16:16;37.97;;;34.17;;
9254;SDS011;4663;49.120;9.730;2023-03-01T07:18:41;34.83;;;31.53;;
9254;SDS011;4663;49.120;9.730;2023-03-01T07:21:07;31.73;;;29.03;;
9254;SDS011;4663;49.120;9.730;2023-03-01T07:23:34;30.97;;;27.97;;
9254;SDS011;4663;49.120;9.730;2023-03-01T07:25:59;30.17;;;27.27;;
9254;SDS011;4663;49.120;9.730;2023-03-01T07:28:25;30.77;;;27.93;;
9254;SDS011;4663;49.120;9.730;2023-03-01T07:30:51;28.40;;;25.80;;
9254;SDS011;4663;49.120;9.730;2023-03-01T07:33:17;28.87;;;26.13;;
9254;SDS011;4663;49.120;9.730;2023-03-01T07:35:42;29.03;;;26.23;;
9254;SDS011;4663;49.120;9.730;2023-03-01T07:38:08;26.97;;;24.37;;
9254;SDS011;4663;49.120;9.730;2023-03-01T07:40:34;26.07;;;23.10;;
9254;SDS011;4663;49.120;9.730;2023-03-01T07:43:00;25.33;;;22.77;;
9254;SDS011;4663;49.120;9.730;2023-03-01T07:45:26;25.40;;;23.00;;
9254;SDS011;4663;49.120;9.730;2023-03-01T07:47:52;24.80;;;22.27;;
9254;SDS011;4663;49.120;9.730;2023-03-01T07:50:19;26.20;;;21.93;;
9254;SDS011;4663;49.120;9.730;2023-03-01T07:52:45;27.47;;;24.77;;
9254;SDS011;4663;49.120;9.730;2023-03-01T07:55:11;26.80;;;24.40;;
9254;SDS011;4663;49.120;9.730;2023-03-01T07:57:37;35.03;;;32.20;;
9254;SDS011;4663;49.120;9.730;2023-03-01T08:00:02;37.97;;;34.87;;
9254;SDS011;4663;49.120;9.730;2023-03-01T08:02:28;40.80;;;37.57;;
9254;SDS011;4663;49.120;9.730;2023-03-01T08:04:53;41.37;;;38.07;;
9254;SDS011;4663;49.120;9.730;2023-03-01T08:07:19;42.73;;;39.43;;
9254;SDS011;4663;49.120;9.730;2023-03-01T08:09:44;44.90;;;41.13;;
9254;SDS011;4663;49.120;9.730;2023-03-01T08:12:10;41.07;;;37.83;;
9254;SDS011;4663;49.120;9.730;2023-03-01T08:14:35;36.83;;;33.50;;
9254;SDS011;4663;49.120;9.730;2023-03-01T08:17:00;30.43;;;27.47;;
9254;SDS011;4663;49.120;9.730;2023-03-01T08:19:28;28.47;;;25.80;;
9254;SDS011;4663;49.120;9.730;2023-03-01T08:21:53;25.07;;;22.57;;
9254;SDS011;4663;49.120;9.730;2023-03-01T08:24:18;32.37;;;29.30;;
9254;SDS011;4663;49.120;9.730;2023-03-01T08:26:44;52.47;;;48.20;;
9254;SDS011;4663;49.120;9.730;2023-03-01T08:29:09;52.60;;;48.83;;
9254;SDS011;4663;49.120;9.730;2023-03-01T08:31:36;44.87;;;41.53;;
9254;SDS011;4663;49.120;9.730;2023-03-01T08:34:07;40.93;;;37.63;;
9254;SDS011;4663;49.120;9.730;2023-03-01T08:36:36;29.07;;;26.47;;
9254;SDS011;4663;49.120;9.730;2023-03-01T08:39:04;30.63;;;27.93;;
9254;SDS011;4663;49.120;9.730;2023-03-01T08:41:30;28.70;;;26.00;;
9254;SDS011;4663;49.120;9.730;2023-03-01T08:43:55;31.87;;;29.07;;
9254;SDS011;4663;49.120;9.730;2023-03-01T08:46:34;31.90;;;29.17;;
9254;SDS011;4663;49.120;9.730;2023-03-01T08:49:05;26.80;;;24.37;;
9254;SDS011;4663;49.120;9.730;2023-03-01T08:51:32;27.00;;;24.43;;
9254;SDS011;4663;49.120;9.730;2023-03-01T08:54:01;26.47;;;23.77;;
9254;SDS011;4663;49.120;9.730;2023-03-01T08:56:28;27.70;;;25.10;;
9254;SDS011;4663;49.120;9.730;2023-03-01T08:58:53;28.57;;;26.07;;
9254;SDS011;4663;49.120;9.730;2023-03-01T09:01:19;28.23;;;23.10;;
9254;SDS011;4663;49.120;9.730;2023-03-01T09:03:44;26.80;;;24.30;;
9254;SDS011;4663;49.120;9.730;2023-03-01T09:06:11;28.00;;;25.33;;
9254;SDS011;4663;49.120;9.730;2023-03-01T09:08:41;41.20;;;37.80;;
9254;SDS011;4663;49.120;9.730;2023-03-01T09:11:08;39.00;;;35.83;;
9254;SDS011;4663;49.120;9.730;2023-03-01T09:13:36;42.97;;;39.63;;
9254;SDS011;4663;49.120;9.730;2023-03-01T09:16:02;49.53;;;45.93;;
9254;SDS011;4663;49.120;9.730;2023-03-01T09:18:29;53.37;;;49.53;;
9254;SDS011;4663;49.120;9.730;2023-03-01T09:21:05;52.03;;;48.20;;
9254;SDS011;4663;49.120;9.730;2023-03-01T09:23:36;43.83;;;40.47;;
9254;SDS011;4663;49.120;9.730;2023-03-01T09:26:04;50.57;;;46.93;;
9254;SDS011;4663;49.120;9.730;2023-03-01T09:28:30;47.87;;;44.40;;
9254;SDS011;4663;49.120;9.730;2023-03-01T09:30:59;47.57;;;44.13;;
9254;SDS011;4663;49.120;9.730;2023-03-01T09:33:26;49.80;;;46.27;;
9254;SDS011;4663;49.120;9.730;2023-03-01T09:36:11;49.77;;;46.17;;
9254;SDS011;4663;49.120;9.730;2023-03-01T09:38:38;51.83;;;48.30;;
9254;SDS011;4663;49.120;9.730;2023-03-01T09:41:09;52.10;;;48.30;;
9254;SDS011;4663;49.120;9.730;2023-03-01T09:43:43;51.53;;;47.93;;
9254;SDS011;4663;49.120;9.730;2023-03-01T09:46:12;49.30;;;45.63;;
9254;SDS011;4663;49.120;9.730;2023-03-01T09:48:42;48.90;;;45.40;;
9254;SDS011;4663;49.120;9.730;2023-03-01T09:51:26;50.87;;;47.00;;
9254;SDS011;4663;49.120;9.730;2023-03-01T09:53:55;51.33;;;47.13;;
9254;SDS011;4663;49.120;9.730;2023-03-01T09:56:24;47.43;;;43.73;;
9254;SDS011;4663;49.120;9.730;2023-03-01T10:04:46;28.10;;;25.60;;
9254;SDS011;4663;49.120;9.730;2023-03-01T10:09:53;27.13;;;24.63;;
9254;SDS011;4663;49.120;9.730;2023-03-01T10:12:24;30.80;;;28.00;;
9254;SDS011;4663;49.120;9.730;2023-03-01T10:17:42;38.97;;;36.03;;
9254;SDS011;4663;49.120;9.730;2023-03-01T10:22:50;51.03;;;47.20;;
9254;SDS011;4663;49.120;9.730;2023-03-01T10:28:10;37.87;;;34.93;;
9254;SDS011;4663;49.120;9.730;2023-03-01T10:30:42;48.40;;;44.97;;
9254;SDS011;4663;49.120;9.730;2023-03-01T10:33:27;44.03;;;40.67;;
9254;SDS011;4663;49.120;9.730;2023-03-01T10:35:57;49.53;;;45.93;;
9254;SDS011;4663;49.120;9.730;2023-03-01T10:38:22;48.67;;;45.10;;
9254;SDS011;4663;49.120;9.730;2023-03-01T10:40:52;49.03;;;45.67;;
9254;SDS011;4663;49.120;9.730;2023-03-01T10:43:18;51.27;;;47.70;;
9254;SDS011;4663;49.120;9.730;2023-03-01T10:45:45;48.80;;;45.37;;
9254;SDS011;4663;49.120;9.730;2023-03-01T10:48:15;50.10;;;46.43;;
9254;SDS011;4663;49.120;9.730;2023-03-01T10:50:49;46.00;;;42.57;;
9254;SDS011;4663;49.120;9.730;2023-03-01T10:58:39;45.77;;;42.57;;
9254;SDS011;4663;49.120;9.730;2023-03-01T11:03:41;48.63;;;45.00;;
9254;SDS011;4663;49.120;9.730;2023-03-01T11:14:18;50.43;;;46.90;;
9254;SDS011;4663;49.120;9.730;2023-03-01T11:16:45;48.53;;;45.13;;
9254;SDS011;4663;49.120;9.730;2023-03-01T11:19:15;47.53;;;44.13;;
9254;SDS011;4663;49.120;9.730;2023-03-01T11:21:45;48.73;;;44.90;;
9254;SDS011;4663;49.120;9.730;2023-03-01T11:24:17;47.60;;;44.13;;
9254;SDS011;4663;49.120;9.730;2023-03-01T11:26:45;45.13;;;41.80;;
9254;SDS011;4663;49.120;9.730;2023-03-01T11:29:38;46.00;;;42.70;;
9254;SDS011;4663;49.120;9.730;2023-03-01T11:32:07;51.73;;;48.07;;
9254;SDS011;4663;49.120;9.730;2023-03-01T11:37:20;51.53;;;47.80;;
9254;SDS011;4663;49.120;9.730;2023-03-01T11:39:54;48.80;;;45.47;;
9254;SDS011;4663;49.120;9.730;2023-03-01T11:45:19;54.03;;;50.13;;
9254;SDS011;4663;49.120;9.730;2023-03-01T11:53:01;47.67;;;44.23;;
9254;SDS011;4663;49.120;9.730;2023-03-01T12:09:31;46.43;;;43.23;;
9254;SDS011;4663;49.120;9.730;2023-03-01T12:17:40;48.37;;;45.00;;
9254;SDS011;4663;49.120;9.730;2023-03-01T12:20:35;47.97;;;44.57;;
9254;SDS011;4663;49.120;9.730;2023-03-01T12:23:15;58.67;;;54.90;;
9254;SDS011;4663;49.120;9.730;2023-03-01T12:50:54;46.80;;;43.53;;
9254;SDS011;4663;49.120;9.730;2023-03-01T12:53:25;48.07;;;44.47;;
9254;SDS011;4663;49.120;9.730;2023-03-01T12:55:55;45.13;;;41.83;;
9254;SDS011;4663;49.120;9.730;2023-03-01T12:58:42;46.27;;;42.93;;
9254;SDS011;4663;49.120;9.730;2023-03-01T13:04:21;45.13;;;41.97;;
9254;SDS011;4663;49.120;9.730;2023-03-01T13:09:39;47.47;;;44.03;;
9254;SDS011;4663;49.120;9.730;2023-03-01T13:20:53;46.53;;;43.30;;
9254;SDS011;4663;49.120;9.730;2023-03-01T13:30:57;46.17;;;43.03;;
9254;SDS011;4663;49.120;9.730;2023-03-01T13:35:48;40.30;;;37.53;;
9254;SDS011;4663;49.120;9.730;2023-03-01T13:38:48;41.70;;;38.43;;
9254;SDS011;4663;49.120;9.730;2023-03-01T13:41:08;43.07;;;39.93;;
9254;SDS011;4663;49.120;9.730;2023-03-01T13:43:38;43.17;;;40.10;;
9254;SDS011;4663;49.120;9.730;2023-03-01T13:46:09;47.30;;;44.07;;
9254;SDS011;4663;49.120;9.730;2023-03-01T13:48:42;43.00;;;40.00;;
9254;SDS011;4663;49.120;9.730;2023-03-01T13:51:10;43.87;;;40.77;;
9254;SDS011;4663;49.120;9.730;2023-03-01T13:53:39;43.07;;;40.13;;
9254;SDS011;4663;49.120;9.730;2023-03-01T13:56:09;43.73;;;40.50;;
9254;SDS011;4663;49.120;9.730;2023-03-01T13:58:51;44.20;;;41.13;;
9254;SDS011;4663;49.120;9.730;2023-03-01T14:01:30;47.57;;;44.20;;
9254;SDS011;4663;49.120;9.730;2023-03-01T14:03:58;46.77;;;43.43;;
9254;SDS011;4663;49.120;9.730;2023-03-01T14:06:25;42.93;;;40.00;;
9254;SDS011;4663;49.120;9.730;2023-03-01T14:09:00;47.20;;;44.10;;
9254;SDS011;4663;49.120;9.730;2023-03-01T14:11:48;45.80;;;42.60;;
9254;SDS011;4663;49.120;9.730;2023-03-01T14:19:36;53.03;;;49.50;;
9254;SDS011;4663;49.120;9.730;2023-03-01T14:24:50;46.23;;;42.80;;
9254;SDS011;4663;49.120;9.730;2023-03-01T14:27:17;47.40;;;44.07;;
9254;SDS011;4663;49.120;9.730;2023-03-01T14:29:43;44.13;;;41.00;;
9254;SDS011;4663;49.120;9.730;2023-03-01T14:34:45;46.73;;;43.47;;
9254;SDS011;4663;49.120;9.730;2023-03-01T14:37:22;47.80;;;44.50;;
9254;SDS011;4663;49.120;9.730;2023-03-01T14:39:51;48.27;;;44.63;;
9254;SDS011;4663;49.120;9.730;2023-03-01T14:42:17;46.27;;;42.77;;
9254;SDS011;4663;49.120;9.730;2023-03-01T14:44:46;44.03;;;41.00;;
9254;SDS011;4663;49.120;9.730;2023-03-01T14:47:14;41.00;;;37.97;;
9254;SDS011;4663;49.120;9.730;2023-03-01T14:49:49;42.20;;;39.20;;
9254;SDS011;4663;49.120;9.730;2023-03-01T14:52:23;42.13;;;39.17;;
9254;SDS011;4663;49.120;9.730;2023-03-01T14:54:56;39.60;;;36.73;;
9254;SDS011;4663;49.120;9.730;2023-03-01T14:57:23;37.07;;;34.13;;
9254;SDS011;4663;49.120;9.730;2023-03-01T14:59:50;38.00;;;35.13;;
9254;SDS011;4663;49.120;9.730;2023-03-01T15:02:20;40.07;;;36.97;;
9254;SDS011;4663;49.120;9.730;2023-03-01T15:04:49;36.70;;;33.80;;
9254;SDS011;4663;49.120;9.730;2023-03-01T15:07:17;35.17;;;32.37;;
9254;SDS011;4663;49.120;9.730;2023-03-01T15:09:44;34.63;;;31.80;;
9254;SDS011;4663;49.120;9.730;2023-03-01T15:14:54;32.10;;;29.50;;
9254;SDS011;4663;49.120;9.730;2023-03-01T15:17:33;28.67;;;26.37;;
9254;SDS011;4663;49.120;9.730;2023-03-01T15:20:02;28.27;;;25.97;;
9254;SDS011;4663;49.120;9.730;2023-03-01T15:22:30;27.03;;;24.93;;
9254;SDS011;4663;49.120;9.730;2023-03-01T15:24:56;26.27;;;24.07;;
9254;SDS011;4663;49.120;9.730;2023-03-01T15:27:24;26.00;;;23.90;;
9254;SDS011;4663;49.120;9.730;2023-03-01T15:30:00;28.23;;;25.73;;
9254;SDS011;4663;49.120;9.730;2023-03-01T15:32:31;24.50;;;22.43;;
9254;SDS011;4663;49.120;9.730;2023-03-01T15:41:30;27.67;;;25.43;;
9254;SDS011;4663;49.120;9.730;2023-03-01T15:44:16;25.50;;;23.30;;
9254;SDS011;4663;49.120;9.730;2023-03-01T15:46:50;25.53;;;23.33;;
9254;SDS011;4663;49.120;9.730;2023-03-01T15:49:36;24.80;;;22.70;;
9254;SDS011;4663;49.120;9.730;2023-03-01T15:52:04;24.30;;;22.27;;
9254;SDS011;4663;49.120;9.730;2023-03-01T15:54:35;25.10;;;23.03;;
9254;SDS011;4663;49.120;9.730;2023-03-01T15:57:00;24.27;;;22.00;;
9254;SDS011;4663;49.120;9.730;2023-03-01T15:59:26;25.17;;;22.93;;
9254;SDS011;4663;49.120;9.730;2023-03-01T16:01:51;26.30;;;24.27;;
9254;SDS011;4663;49.120;9.730;2023-03-01T16:04:17;25.13;;;22.93;;
9254;SDS011;4663;49.120;9.730;2023-03-01T16:06:48;25.60;;;22.90;;
9254;SDS011;4663;49.120;9.730;2023-03-01T16:09:22;27.83;;;25.53;;
9254;SDS011;4663;49.120;9.730;2023-03-01T16:11:49;27.17;;;24.93;;
9254;SDS011;4663;49.120;9.730;2023-03-01T16:14:15;25.23;;;23.07;;
9254;SDS011;4663;49.120;9.730;2023-03-01T16:16:41;29.23;;;26.50;;
9254;SDS011;4663;49.120;9.730;2023-03-01T16:19:07;27.47;;;25.23;;
9254;SDS011;4663;49.120;9.730;2023-03-01T16:21:32;31.37;;;28.93;;
9254;SDS011;4663;49.120;9.730;2023-03-01T16:23:58;31.20;;;28.77;;
9254;SDS011;4663;49.120;9.730;2023-03-01T16:26:23;31.40;;;29.00;;
9254;SDS011;4663;49.120;9.730;2023-03-01T16:28:48;31.13;;;28.57;;
9254;SDS011;4663;49.120;9.730;2023-03-01T16:31:16;30.57;;;28.27;;
9254;SDS011;4663;49.120;9.730;2023-03-01T16:33:44;32.20;;;29.67;;
9254;SDS011;4663;49.120;9.730;2023-03-01T16:36:14;34.60;;;32.03;;
9254;SDS011;4663;49.120;9.730;2023-03-01T16:38:41;38.73;;;35.90;;
9254;SDS011;4663;49.120;9.730;2023-03-01T16:41:06;40.57;;;37.70;;
9254;SDS011;4663;49.120;9.730;2023-03-01T16:43:37;47.70;;;44.23;;
9254;SDS011;4663;49.120;9.730;2023-03-01T16:46:09;47.03;;;43.93;;
9254;SDS011;4663;49.120;9.730;2023-03-01T16:48:39;46.70;;;43.70;;
9254;SDS011;4663;49.120;9.730;2023-03-01T16:51:04;49.20;;;45.83;;
9254;SDS011;4663;49.120;9.730;2023-03-01T16:53:30;49.80;;;46.47;;
9254;SDS011;4663;49.120;9.730;2023-03-01T16:55:56;51.00;;;47.40;;
9254;SDS011;4663;49.120;9.730;2023-03-01T16:58:23;50.93;;;47.63;;
9254;SDS011;4663;49.120;9.730;2023-03-01T17:00:50;56.77;;;52.87;;
9254;SDS011;4663;49.120;9.730;2023-03-01T17:03:20;56.90;;;53.27;;
9254;SDS011;4663;49.120;9.730;2023-03-01T17:05:46;56.10;;;52.20;;
9254;SDS011;4663;49.120;9.730;2023-03-01T17:08:11;51.87;;;48.50;;
9254;SDS011;4663;49.120;9.730;2023-03-01T17:10:37;52.73;;;49.33;;
9254;SDS011;4663;49.120;9.730;2023-03-01T17:13:02;66.90;;;62.77;;
9254;SDS011;4663;49.120;9.730;2023-03-01T17:15:28;48.53;;;45.27;;
9254;SDS011;4663;49.120;9.730;2023-03-01T17:17:53;45.40;;;42.23;;
9254;SDS011;4663;49.120;9.730;2023-03-01T17:20:19;43.97;;;40.77;;